Time;durP1;ratioP1;P1;durP2;ratioP2;P2;SDS_P1;SDS_P2;PMS_P1;PMS_P2;Temp;Humidity;BMP_temperature;BMP_pressure;BME280_temperature;BME280_humidity;BME280_pressure;Samples;Min_cycle;Max_cycle;Signal;HPM_P1;HPM_P2
2021/03/14 00:00:18;;;;;;;70.32;28.85;;;3.90;94.80;;;;;;5054827;28;20041;-65
2021/03/14 00:02:44;;;;;;;64.45;27.67;;;3.80;94.80;;;;;;5054846;28;20063;-64
2021/03/14 00:05:10;;;;;;;61.90;28.80;;;3.80;94.90;;;;;;5053538;28;20483;-65
2021/03/14 00:07:36;;;;;;;67.18;28.38;;;3.80;94.90;;;;;;5053017;28;20037;-65
2021/03/14 00:10:02;;;;;;;74.55;28.92;;;3.70;95.00;;;;;;5053013;28;20025;-65
2021/03/14 00:12:28;;;;;;;62.83;28.20;;;3.70;95.20;;;;;;5054232;28;20059;-65
2021/03/14 00:14:53;;;;;;;62.70;25.90;;;3.70;95.40;;;;;;5054330;28;20108;-65
2021/03/14 00:17:19;;;;;;;60.65;29.73;;;3.70;95.50;;;;;;5053987;28;20025;-65
2021/03/14 00:19:44;;;;;;;55.45;24.33;;;3.70;95.70;;;;;;5054134;28;20036;-64
2021/03/14 00:22:10;;;;;;;57.97;26.25;;;3.70;96.00;;;;;;5052652;28;20037;-65
2021/03/14 00:24:36;;;;;;;55.50;26.50;;;3.80;96.10;;;;;;5054473;28;20049;-65
2021/03/14 00:27:02;;;;;;;69.95;30.50;;;3.80;96.10;;;;;;5053843;28;20040;-65
2021/03/14 00:29:28;;;;;;;53.03;23.58;;;3.80;96.20;;;;;;5053868;28;20037;-65
2021/03/14 00:31:53;;;;;;;51.33;21.38;;;3.80;96.10;;;;;;5054201;28;20021;-64
2021/03/14 00:34:19;;;;;;;67.68;31.33;;;3.80;96.00;;;;;;5053765;28;20029;-66
2021/03/14 00:36:45;;;;;;;62.40;27.08;;;3.80;95.70;;;;;;5052714;28;20124;-65
2021/03/14 00:39:10;;;;;;;61.58;26.98;;;3.80;95.60;;;;;;5053392;28;20463;-65
2021/03/14 00:41:36;;;;;;;65.15;27.95;;;3.70;95.50;;;;;;5053620;28;20104;-65
2021/03/14 00:44:02;;;;;;;63.22;28.10;;;3.70;95.60;;;;;;5053690;28;20024;-64
2021/03/14 00:46:31;;;;;;;62.38;26.58;;;3.70;95.70;;;;;;5053735;28;20057;-65
2021/03/14 00:48:57;;;;;;;75.93;30.98;;;3.70;95.80;;;;;;5048962;28;20116;-66
2021/03/14 00:51:24;;;;;;;80.07;29.48;;;3.70;95.80;;;;;;5052165;28;20116;-65
2021/03/14 00:53:51;;;;;;;89.40;36.22;;;3.60;95.90;;;;;;5051857;28;20033;-66
2021/03/14 00:56:17;;;;;;;86.38;33.25;;;3.70;96.00;;;;;;5053724;28;20033;-65
2021/03/14 00:58:43;;;;;;;70.95;27.58;;;3.60;95.90;;;;;;5052279;28;20040;-65
2021/03/14 01:01:08;;;;;;;67.90;28.23;;;3.60;95.90;;;;;;5053164;28;20025;-65
2021/03/14 01:03:34;;;;;;;84.90;32.10;;;3.60;95.80;;;;;;5052273;28;20032;-65
2021/03/14 01:06:00;;;;;;;58.88;27.45;;;3.60;95.80;;;;;;5051647;28;20075;-65
2021/03/14 01:08:26;;;;;;;79.40;30.58;;;3.60;95.90;;;;;;5053005;28;20110;-65
2021/03/14 01:10:51;;;;;;;67.22;25.67;;;3.50;95.80;;;;;;5053761;28;20110;-65
2021/03/14 01:13:17;;;;;;;74.72;29.50;;;3.50;95.80;;;;;;5053183;28;20025;-64
2021/03/14 01:15:43;;;;;;;68.88;26.77;;;3.40;95.80;;;;;;5051810;28;20040;-65
2021/03/14 01:18:08;;;;;;;51.42;21.83;;;3.40;95.90;;;;;;5053103;28;20039;-64
2021/03/14 01:20:34;;;;;;;50.55;21.08;;;3.40;95.90;;;;;;5052982;28;20399;-64
2021/03/14 01:23:00;;;;;;;53.08;21.25;;;3.40;95.90;;;;;;5052598;28;20071;-65
2021/03/14 01:25:26;;;;;;;46.28;20.33;;;3.30;96.00;;;;;;5053141;28;20103;-65
2021/03/14 01:27:52;;;;;;;54.50;21.48;;;3.40;96.00;;;;;;5053066;28;20021;-64
2021/03/14 01:30:19;;;;;;;45.47;20.58;;;3.30;96.00;;;;;;5053265;28;20033;-64
2021/03/14 01:32:45;;;;;;;42.83;19.80;;;3.30;96.00;;;;;;5051525;28;20053;-64
2021/03/14 01:35:12;;;;;;;50.20;22.10;;;3.30;95.90;;;;;;5051496;28;20028;-65
2021/03/14 01:37:38;;;;;;;34.63;16.08;;;3.30;96.00;;;;;;5052632;28;20383;-65
2021/03/14 01:40:07;;;;;;;43.88;20.52;;;3.20;96.00;;;;;;5053093;28;20025;-65
2021/03/14 01:42:34;;;;;;;31.17;14.55;;;3.20;96.10;;;;;;5051730;28;20025;-65
2021/03/14 01:44:59;;;;;;;35.92;15.23;;;3.20;96.10;;;;;;5052765;28;20025;-65
2021/03/14 01:47:39;;;;;;;35.22;16.27;;;3.10;96.00;;;;;;5051249;28;20056;-66
2021/03/14 01:50:14;;;;;;;34.20;15.25;;;3.10;96.30;;;;;;5052781;28;20080;-66
2021/03/14 01:52:41;;;;;;;38.65;15.98;;;3.10;96.00;;;;;;5051589;28;20028;-65
2021/03/14 01:55:08;;;;;;;41.85;18.88;;;3.00;95.90;;;;;;5052752;28;20017;-65
2021/03/14 01:57:35;;;;;;;41.03;18.38;;;3.00;96.10;;;;;;5052402;28;20044;-65
2021/03/14 02:00:03;;;;;;;36.83;17.48;;;3.00;96.00;;;;;;5052472;28;20022;-65
2021/03/14 02:02:28;;;;;;;35.05;17.15;;;2.90;96.10;;;;;;5052764;28;20123;-65
2021/03/14 02:04:54;;;;;;;29.13;14.40;;;2.90;96.10;;;;;;5052235;28;20073;-65
2021/03/14 02:07:20;;;;;;;36.42;17.67;;;2.90;96.10;;;;;;5051270;28;20050;-65
2021/03/14 02:09:46;;;;;;;35.78;17.75;;;2.80;95.90;;;;;;5052490;28;20372;-64
2021/03/14 02:12:15;;;;;;;33.35;15.93;;;2.80;96.10;;;;;;5051382;28;20108;-64
2021/03/14 02:14:42;;;;;;;31.23;14.35;;;2.70;96.20;;;;;;5051328;28;20025;-65
2021/03/14 02:17:15;;;;;;;27.02;13.82;;;2.70;96.30;;;;;;5052307;28;20043;-66
2021/03/14 02:19:51;;;;;;;40.08;20.27;;;2.70;96.40;;;;;;5051532;28;20075;-65
2021/03/14 02:22:20;;;;;;;33.42;15.30;;;2.70;96.70;;;;;;5052627;28;20028;-64
2021/03/14 02:24:52;;;;;;;30.65;13.05;;;2.70;96.70;;;;;;5051602;28;20375;-64
2021/03/14 02:27:18;;;;;;;24.23;12.60;;;2.70;96.70;;;;;;5051351;28;20040;-64
2021/03/14 02:29:44;;;;;;;32.50;15.70;;;2.70;96.60;;;;;;5054873;28;20442;-64
2021/03/14 02:32:11;;;;;;;26.60;13.00;;;2.70;96.60;;;;;;5056088;28;20116;-65
2021/03/14 02:34:41;;;;;;;31.27;13.80;;;2.70;96.60;;;;;;5056172;28;20414;-65
2021/03/14 02:37:08;;;;;;;27.65;15.20;;;2.70;96.60;;;;;;5054736;28;20025;-65
2021/03/14 02:39:36;;;;;;;19.58;10.25;;;2.70;96.70;;;;;;5056276;28;20071;-65
2021/03/14 02:42:05;;;;;;;31.33;15.05;;;2.60;96.60;;;;;;5054596;28;20075;-65
2021/03/14 02:44:34;;;;;;;28.42;14.63;;;2.60;96.60;;;;;;5054544;28;20056;-64
2021/03/14 02:47:01;;;;;;;32.08;15.45;;;2.60;96.50;;;;;;5054492;28;20048;-65
2021/03/14 02:49:27;;;;;;;28.15;15.18;;;2.50;96.60;;;;;;5054543;28;20037;-65
2021/03/14 02:51:54;;;;;;;25.02;13.18;;;2.50;96.80;;;;;;5054813;28;20025;-65
2021/03/14 02:54:21;;;;;;;33.38;16.25;;;2.50;96.30;;;;;;5054287;28;20025;-65
2021/03/14 02:56:48;;;;;;;33.25;17.30;;;2.40;96.30;;;;;;5055751;28;20021;-65
2021/03/14 02:59:20;;;;;;;30.45;16.25;;;2.40;96.40;;;;;;5055699;28;20021;-65
2021/03/14 03:01:47;;;;;;;30.73;15.25;;;2.40;96.60;;;;;;5054385;28;20521;-65
2021/03/14 03:04:32;;;;;;;24.90;11.45;;;2.40;96.50;;;;;;5055769;28;20027;-64
2021/03/14 03:06:58;;;;;;;26.20;13.25;;;2.40;96.70;;;;;;5054065;28;20069;-64
2021/03/14 03:09:25;;;;;;;22.60;11.57;;;2.40;96.80;;;;;;5047766;28;20427;-65
2021/03/14 03:11:53;;;;;;;25.13;13.13;;;2.40;97.00;;;;;;5055712;28;20066;-64
2021/03/14 03:14:22;;;;;;;26.50;13.27;;;2.40;97.10;;;;;;5054364;28;20056;-64
2021/03/14 03:16:51;;;;;;;24.10;11.23;;;2.50;97.20;;;;;;5055324;28;20053;-65
2021/03/14 03:19:18;;;;;;;26.85;13.65;;;2.50;97.20;;;;;;5055198;28;20020;-65
2021/03/14 03:21:45;;;;;;;23.90;10.85;;;2.50;97.20;;;;;;5053789;28;20510;-65
2021/03/14 03:24:12;;;;;;;27.83;13.55;;;2.50;97.30;;;;;;5054094;28;20171;-65
2021/03/14 03:26:44;;;;;;;22.10;10.68;;;2.60;97.40;;;;;;5054143;28;20055;-64
2021/03/14 03:29:11;;;;;;;24.33;12.30;;;2.60;97.60;;;;;;5040719;28;20482;-65
2021/03/14 03:31:37;;;;;;;26.45;13.45;;;2.60;97.50;;;;;;5055533;28;20059;-65
2021/03/14 03:34:07;;;;;;;29.80;13.82;;;2.70;97.60;;;;;;5055027;28;20051;-65
2021/03/14 03:36:33;;;;;;;33.95;17.27;;;2.70;97.60;;;;;;5053707;28;20037;-65
2021/03/14 03:39:00;;;;;;;25.58;12.82;;;2.70;97.50;;;;;;5053570;28;20021;-69
2021/03/14 03:41:29;;;;;;;34.08;16.20;;;2.70;97.50;;;;;;5053751;28;20028;-65
2021/03/14 03:43:56;;;;;;;31.25;14.85;;;2.70;97.50;;;;;;5053482;28;20100;-65
2021/03/14 03:46:23;;;;;;;31.20;14.88;;;2.80;97.70;;;;;;5053472;28;20068;-66
2021/03/14 03:48:52;;;;;;;30.23;15.77;;;2.80;97.80;;;;;;5054806;28;20033;-66
2021/03/14 03:51:21;;;;;;;32.67;15.98;;;2.80;97.80;;;;;;5053374;28;20025;-65
2021/03/14 03:53:49;;;;;;;24.90;12.43;;;2.90;97.70;;;;;;5053671;28;20459;-65
2021/03/14 03:56:15;;;;;;;29.80;13.35;;;2.90;97.80;;;;;;5053149;28;20120;-65
2021/03/14 03:58:42;;;;;;;34.78;17.02;;;2.90;97.70;;;;;;5054637;28;20096;-66
2021/03/14 04:01:12;;;;;;;34.28;16.48;;;2.90;97.60;;;;;;5052917;28;20486;-66
2021/03/14 04:03:44;;;;;;;31.38;13.93;;;3.00;97.60;;;;;;5052953;28;20029;-65
2021/03/14 04:06:12;;;;;;;30.67;13.18;;;3.00;97.60;;;;;;5054390;28;20410;-65
2021/03/14 04:08:40;;;;;;;34.58;13.88;;;3.00;97.60;;;;;;5053014;28;20074;-65
2021/03/14 04:11:09;;;;;;;33.72;15.25;;;3.00;97.50;;;;;;5052901;28;20053;-65
2021/03/14 04:13:36;;;;;;;34.17;14.98;;;3.00;97.50;;;;;;5052898;28;20029;-66
2021/03/14 04:16:03;;;;;;;37.47;16.42;;;3.00;97.60;;;;;;5052778;28;20120;-65
2021/03/14 04:18:31;;;;;;;35.30;14.05;;;3.00;97.90;;;;;;5054303;28;20021;-65
2021/03/14 04:20:58;;;;;;;34.50;14.65;;;3.00;97.70;;;;;;5053158;28;20379;-65
2021/03/14 04:23:26;;;;;;;39.17;15.63;;;3.00;97.80;;;;;;5053918;28;20029;-65
2021/03/14 04:25:55;;;;;;;41.35;16.77;;;3.00;97.80;;;;;;5052909;28;20060;-65
2021/03/14 04:28:23;;;;;;;30.65;13.02;;;3.10;97.80;;;;;;5053659;28;20040;-69
2021/03/14 04:30:51;;;;;;;35.83;16.10;;;3.00;97.60;;;;;;5052920;28;20029;-65
2021/03/14 04:33:18;;;;;;;32.13;14.25;;;3.00;97.60;;;;;;5052521;28;20040;-65
2021/03/14 04:35:44;;;;;;;24.88;12.82;;;3.00;97.60;;;;;;5052517;28;20053;-65
2021/03/14 04:38:11;;;;;;;34.70;16.55;;;3.00;97.60;;;;;;5053950;28;20418;-66
2021/03/14 04:40:38;;;;;;;32.22;14.95;;;3.00;97.70;;;;;;5053942;28;20017;-62
2021/03/14 04:43:04;;;;;;;49.38;18.80;;;3.00;97.80;;;;;;5052083;28;20025;-65
2021/03/14 04:45:32;;;;;;;35.80;14.93;;;2.90;97.80;;;;;;5053680;28;20044;-65
2021/03/14 04:47:57;;;;;;;40.40;16.83;;;2.90;97.90;;;;;;5052170;28;20120;-65
2021/03/14 04:50:25;;;;;;;31.13;11.95;;;2.90;98.00;;;;;;5052153;28;20131;-65
2021/03/14 04:52:55;;;;;;;32.30;15.63;;;2.90;98.10;;;;;;5053770;28;20107;-65
2021/03/14 04:55:21;;;;;;;45.45;19.90;;;2.90;98.20;;;;;;5053607;28;20108;-65
2021/03/14 04:57:48;;;;;;;40.28;18.38;;;2.90;98.30;;;;;;5051610;28;20029;-66
2021/03/14 05:00:17;;;;;;;31.13;12.55;;;3.00;98.80;;;;;;5053513;28;20052;-65
2021/03/14 05:02:44;;;;;;;29.45;12.27;;;3.00;98.50;;;;;;5052171;28;20021;-65
2021/03/14 05:05:12;;;;;;;23.38;9.48;;;3.10;98.30;;;;;;5053005;28;20041;-65
2021/03/14 05:07:43;;;;;;;31.42;13.73;;;3.10;98.30;;;;;;5053395;28;20029;-65
2021/03/14 05:10:12;;;;;;;39.53;15.45;;;3.10;98.30;;;;;;5051621;28;20033;-65
2021/03/14 05:12:41;;;;;;;38.90;15.73;;;3.10;98.30;;;;;;5052186;28;20029;-65
2021/03/14 05:15:09;;;;;;;30.17;12.70;;;3.10;98.20;;;;;;5052770;28;20102;-65
2021/03/14 05:17:35;;;;;;;33.47;13.68;;;3.10;98.30;;;;;;5052001;28;20029;-65
2021/03/14 05:20:01;;;;;;;25.60;11.48;;;3.20;98.50;;;;;;5052861;28;20468;-65
2021/03/14 05:22:27;;;;;;;35.20;14.93;;;3.10;98.40;;;;;;5053000;28;20036;-65
2021/03/14 05:24:54;;;;;;;43.47;17.25;;;3.20;98.40;;;;;;5053104;28;20044;-65
2021/03/14 05:27:20;;;;;;;39.97;15.90;;;3.20;98.50;;;;;;5052671;28;20040;-65
2021/03/14 05:29:46;;;;;;;30.83;14.07;;;3.20;98.60;;;;;;5051780;28;20033;-65
2021/03/14 05:32:12;;;;;;;38.30;16.15;;;3.30;98.70;;;;;;5051582;28;20029;-65
2021/03/14 05:34:38;;;;;;;38.00;16.35;;;3.30;98.60;;;;;;5053057;28;20029;-65
2021/03/14 05:37:04;;;;;;;37.28;16.70;;;3.30;98.80;;;;;;5052523;28;20078;-65
2021/03/14 05:39:30;;;;;;;34.28;14.35;;;3.30;98.50;;;;;;5051434;28;20033;-65
2021/03/14 05:41:56;;;;;;;28.88;11.68;;;3.40;98.70;;;;;;5051641;28;20032;-65
2021/03/14 05:44:22;;;;;;;30.25;13.45;;;3.40;98.70;;;;;;5053126;28;20036;-64
2021/03/14 05:46:48;;;;;;;32.67;14.38;;;3.50;98.70;;;;;;5052759;28;20120;-64
2021/03/14 05:49:13;;;;;;;33.42;14.98;;;3.50;98.80;;;;;;5051227;28;20116;-64
2021/03/14 05:51:44;;;;;;;30.92;15.23;;;3.60;98.90;;;;;;5052758;28;20030;-65
2021/03/14 05:54:16;;;;;;;33.38;14.88;;;3.60;98.90;;;;;;5052799;28;20025;-64
2021/03/14 05:56:46;;;;;;;32.10;16.42;;;3.70;99.30;;;;;;5052589;28;20068;-63
2021/03/14 05:59:14;;;;;;;31.05;15.25;;;3.80;98.90;;;;;;5051061;28;20029;-66
2021/03/14 06:01:46;;;;;;;27.60;13.70;;;3.90;99.10;;;;;;5050888;28;20416;-67
2021/03/14 06:04:14;;;;;;;29.30;14.35;;;4.00;99.10;;;;;;5055094;28;20032;-65
2021/03/14 06:06:40;;;;;;;28.35;14.40;;;4.10;98.90;;;;;;5056661;28;20475;-65
2021/03/14 06:09:06;;;;;;;27.20;14.32;;;4.20;98.90;;;;;;5055216;28;20028;-65
2021/03/14 06:11:32;;;;;;;29.10;12.90;;;4.30;98.70;;;;;;5055141;28;20029;-65
2021/03/14 06:13:59;;;;;;;29.30;15.90;;;4.30;98.60;;;;;;5056524;28;20021;-65
2021/03/14 06:16:25;;;;;;;26.42;12.80;;;4.40;98.70;;;;;;5055246;28;20398;-65
2021/03/14 06:18:52;;;;;;;24.75;12.55;;;4.40;98.50;;;;;;5056484;28;20104;-65
2021/03/14 06:21:19;;;;;;;26.77;14.35;;;4.50;98.50;;;;;;5056409;28;20071;-65
2021/03/14 06:24:01;;;;;;;23.88;13.20;;;4.60;98.80;;;;;;5056417;28;20025;-65
2021/03/14 06:26:44;;;;;;;22.60;12.73;;;4.80;99.00;;;;;;5056418;28;20045;-65
2021/03/14 06:29:19;;;;;;;21.42;12.07;;;4.90;98.90;;;;;;5042939;28;20025;-65
2021/03/14 06:31:53;;;;;;;24.15;12.95;;;5.10;98.60;;;;;;5054874;28;20032;-69
2021/03/14 06:34:38;;;;;;;23.13;13.25;;;5.10;98.20;;;;;;5055100;28;20025;-65
2021/03/14 06:37:06;;;;;;;20.98;12.68;;;5.10;97.80;;;;;;5054752;28;20029;-65
2021/03/14 06:39:33;;;;;;;24.42;13.43;;;5.10;97.50;;;;;;5056312;28;20422;-65
2021/03/14 06:41:59;;;;;;;26.83;14.82;;;5.00;97.60;;;;;;5055838;28;20460;-65
2021/03/14 06:44:30;;;;;;;24.90;13.70;;;5.10;97.40;;;;;;5056087;28;20040;-65
2021/03/14 06:46:57;;;;;;;24.98;13.43;;;5.10;97.60;;;;;;5054945;28;20037;-65
2021/03/14 06:49:25;;;;;;;24.85;13.45;;;5.10;97.10;;;;;;5055728;28;20024;-65
2021/03/14 06:51:56;;;;;;;26.73;13.32;;;5.10;97.00;;;;;;5055983;28;20063;-65
2021/03/14 06:54:31;;;;;;;25.20;12.20;;;5.20;96.90;;;;;;5054462;28;20111;-66
2021/03/14 06:57:12;;;;;;;22.40;12.73;;;5.20;97.00;;;;;;5054592;28;20086;-65
2021/03/14 06:59:42;;;;;;;25.20;13.60;;;5.20;97.00;;;;;;5055613;28;20033;-65
2021/03/14 07:02:13;;;;;;;20.45;12.50;;;5.20;97.00;;;;;;5054642;28;20040;-65
2021/03/14 07:04:46;;;;;;;22.63;12.00;;;5.30;97.30;;;;;;5053843;28;20033;-66
2021/03/14 07:07:37;;;;;;;25.20;13.00;;;5.30;97.00;;;;;;5055314;28;20025;-65
2021/03/14 07:10:02;;;;;;;24.05;13.02;;;5.30;96.50;;;;;;5054221;28;20379;-65
2021/03/14 07:12:43;;;;;;;23.13;12.23;;;5.30;96.20;;;;;;5055405;28;20051;-65
2021/03/14 07:15:17;;;;;;;20.60;10.55;;;5.40;96.40;;;;;;5053469;28;20490;-66
2021/03/14 07:18:03;;;;;;;19.05;10.10;;;5.40;96.00;;;;;;5055583;28;20033;-66
2021/03/14 07:20:31;;;;;;;20.55;11.15;;;5.40;96.00;;;;;;5054860;28;20458;-65
2021/03/14 07:23:01;;;;;;;19.70;9.93;;;5.40;95.90;;;;;;5054095;28;20025;-65
2021/03/14 07:25:27;;;;;;;21.67;12.15;;;5.40;96.10;;;;;;5053878;28;20029;-66
2021/03/14 07:27:54;;;;;;;21.63;12.35;;;5.40;96.10;;;;;;5053561;28;20033;-65
2021/03/14 07:30:22;;;;;;;19.92;9.98;;;5.40;95.90;;;;;;5054955;28;20380;-64
2021/03/14 07:32:49;;;;;;;20.52;12.73;;;5.50;95.80;;;;;;5054210;28;20048;-65
2021/03/14 07:35:16;;;;;;;22.05;12.00;;;5.50;95.90;;;;;;5053385;28;20039;-65
2021/03/14 07:37:42;;;;;;;16.80;8.20;;;5.60;95.90;;;;;;5053860;28;20497;-65
2021/03/14 07:40:13;;;;;;;17.27;9.32;;;5.60;95.80;;;;;;5054924;28;20025;-66
2021/03/14 07:42:40;;;;;;;19.23;9.10;;;5.70;95.50;;;;;;5054965;28;20511;-66
2021/03/14 07:45:11;;;;;;;19.98;9.48;;;5.70;95.60;;;;;;5054893;28;20021;-65
2021/03/14 07:47:39;;;;;;;23.23;13.02;;;5.80;95.40;;;;;;5053130;28;20494;-66
2021/03/14 07:50:12;;;;;;;25.83;13.85;;;5.80;95.10;;;;;;5054752;28;20029;-65
2021/03/14 07:52:40;;;;;;;17.02;8.25;;;5.90;95.30;;;;;;5054474;28;20031;-65
2021/03/14 07:55:11;;;;;;;22.52;12.70;;;5.90;95.10;;;;;;5053245;28;20115;-66
2021/03/14 07:57:45;;;;;;;21.15;11.98;;;6.00;94.90;;;;;;5053179;28;20040;-65
2021/03/14 08:00:23;;;;;;;17.98;9.90;;;6.00;94.80;;;;;;5053252;28;20440;-65
2021/03/14 08:02:58;;;;;;;20.75;9.77;;;6.00;94.40;;;;;;5047250;28;20021;-65
2021/03/14 08:05:42;;;;;;;20.83;11.55;;;6.00;94.40;;;;;;5053428;28;20345;-65
2021/03/14 08:08:23;;;;;;;23.35;13.15;;;6.10;94.20;;;;;;5048571;28;20043;-65
2021/03/14 08:10:49;;;;;;;25.05;13.40;;;6.10;94.50;;;;;;5053041;28;20059;-64
2021/03/14 08:13:41;;;;;;;20.65;10.50;;;6.20;94.80;;;;;;5054054;28;20064;-64
2021/03/14 08:16:09;;;;;;;21.88;12.40;;;6.30;94.90;;;;;;5050548;28;20072;-65
2021/03/14 08:18:37;;;;;;;22.90;12.55;;;6.40;94.70;;;;;;5052773;28;20490;-65
2021/03/14 08:21:05;;;;;;;22.90;14.20;;;6.40;94.30;;;;;;5052794;28;20025;-65
2021/03/14 08:23:44;;;;;;;21.05;11.75;;;6.60;94.70;;;;;;5052589;28;20032;-65
2021/03/14 08:26:18;;;;;;;20.00;11.07;;;6.70;94.40;;;;;;5052138;28;20064;-65
2021/03/14 08:29:05;;;;;;;23.17;13.02;;;6.80;93.90;;;;;;5052515;28;20067;-64
2021/03/14 08:31:41;;;;;;;20.85;11.35;;;6.80;93.80;;;;;;5053588;28;20044;-64
2021/03/14 08:34:09;;;;;;;19.45;10.10;;;6.90;93.20;;;;;;5053398;28;20079;-64
2021/03/14 08:36:42;;;;;;;16.02;8.63;;;7.00;93.70;;;;;;5054017;28;20097;-64
2021/03/14 08:39:24;;;;;;;16.63;8.50;;;7.10;93.20;;;;;;5052255;28;20017;-64
2021/03/14 08:41:55;;;;;;;15.27;7.38;;;7.30;93.60;;;;;;5052822;28;20111;-64
2021/03/14 08:44:33;;;;;;;21.75;13.13;;;7.60;92.90;;;;;;5052213;28;20128;-64
2021/03/14 08:47:04;;;;;;;21.88;12.23;;;7.70;92.60;;;;;;5053336;28;20460;-64
2021/03/14 08:49:30;;;;;;;22.45;12.57;;;7.90;93.10;;;;;;5040120;28;20021;-64
2021/03/14 08:51:56;;;;;;;22.70;12.70;;;8.20;92.10;;;;;;5053788;28;20032;-64
2021/03/14 08:54:28;;;;;;;22.92;12.18;;;8.20;91.60;;;;;;5052190;28;20035;-64
2021/03/14 08:56:56;;;;;;;18.98;10.73;;;8.30;91.00;;;;;;5053130;28;20021;-64
2021/03/14 08:59:22;;;;;;;18.00;10.02;;;8.20;89.70;;;;;;5051771;28;20067;-64
2021/03/14 09:01:53;;;;;;;22.35;12.48;;;8.00;88.40;;;;;;5053292;28;20025;-64
2021/03/14 09:04:26;;;;;;;22.20;11.77;;;7.90;89.30;;;;;;5053594;28;20029;-64
2021/03/14 09:06:52;;;;;;;19.23;10.35;;;7.80;90.20;;;;;;5053300;28;20044;-64
2021/03/14 09:09:20;;;;;;;22.92;13.90;;;7.70;89.60;;;;;;5053020;28;20418;-63
2021/03/14 09:11:49;;;;;;;24.75;14.88;;;7.60;89.70;;;;;;5053070;28;20088;-64
2021/03/14 09:14:48;;;;;;;19.15;10.93;;;7.60;90.40;;;;;;5052238;28;20028;-64
2021/03/14 09:17:19;;;;;;;20.75;10.70;;;7.60;90.50;;;;;;5038386;28;20078;-63
2021/03/14 09:19:52;;;;;;;23.10;12.75;;;7.50;90.30;;;;;;5053070;28;20025;-64
2021/03/14 09:22:28;;;;;;;25.58;14.85;;;7.50;90.40;;;;;;5051536;28;20025;-64
2021/03/14 09:25:05;;;;;;;24.88;13.68;;;7.50;90.70;;;;;;5051726;28;20036;-64
2021/03/14 09:27:33;;;;;;;23.90;12.88;;;7.50;90.80;;;;;;5038840;28;20037;-64
2021/03/14 09:30:08;;;;;;;27.50;14.77;;;7.60;90.60;;;;;;5051631;28;20082;-64
2021/03/14 09:32:36;;;;;;;26.92;14.32;;;7.60;90.80;;;;;;5039695;28;20116;-66
2021/03/14 09:35:10;;;;;;;25.40;13.50;;;7.60;90.80;;;;;;5052647;28;20021;-64
2021/03/14 09:37:36;;;;;;;18.33;9.18;;;7.60;90.80;;;;;;5038470;28;20108;-64
2021/03/14 09:40:09;;;;;;;26.88;14.30;;;7.70;91.10;;;;;;5051521;28;20069;-63
2021/03/14 09:42:35;;;;;;;22.25;12.75;;;7.80;91.30;;;;;;5051108;28;20162;-66
2021/03/14 09:45:14;;;;;;;15.43;7.50;;;7.80;91.00;;;;;;5051202;28;20108;-65
2021/03/14 09:48:08;;;;;;;23.33;11.15;;;7.80;90.50;;;;;;5052618;28;20029;-64
2021/03/14 09:50:36;;;;;;;19.88;11.18;;;7.80;90.10;;;;;;5051501;28;20049;-65
2021/03/14 09:53:04;;;;;;;11.43;6.57;;;7.70;89.40;;;;;;5052596;28;20024;-64
2021/03/14 09:55:34;;;;;;;20.88;9.82;;;7.60;89.30;;;;;;5051258;28;20025;-64
2021/03/14 09:58:01;;;;;;;22.50;10.75;;;7.50;89.80;;;;;;5052627;28;20029;-64
2021/03/14 10:00:32;;;;;;;23.08;11.80;;;7.40;89.40;;;;;;5051471;28;20024;-64
2021/03/14 10:03:08;;;;;;;23.35;12.68;;;7.30;89.80;;;;;;5051356;28;20468;-65
2021/03/14 10:06:03;;;;;;;19.08;9.23;;;7.30;90.20;;;;;;5051209;28;20045;-64
2021/03/14 10:08:30;;;;;;;14.75;7.90;;;7.20;90.40;;;;;;5052053;28;20090;-64
2021/03/14 10:11:04;;;;;;;20.15;11.38;;;7.10;90.40;;;;;;5052321;28;20467;-64
2021/03/14 10:13:32;;;;;;;19.08;9.63;;;7.10;90.60;;;;;;5052354;28;20027;-64
2021/03/14 10:16:00;;;;;;;16.05;9.05;;;7.10;90.90;;;;;;5052398;28;20021;-64
2021/03/14 10:18:30;;;;;;;19.75;10.70;;;7.00;91.10;;;;;;5051939;28;20498;-65
2021/03/14 10:21:15;;;;;;;17.55;9.93;;;7.10;91.30;;;;;;5052687;28;20029;-65
2021/03/14 10:23:41;;;;;;;14.95;8.55;;;7.10;91.40;;;;;;5052126;28;20036;-65
2021/03/14 10:26:11;;;;;;;20.35;10.98;;;7.10;91.30;;;;;;5051056;28;20467;-64
2021/03/14 10:28:43;;;;;;;20.13;10.43;;;7.20;91.40;;;;;;5050635;28;20128;-64
2021/03/14 10:31:09;;;;;;;20.17;9.82;;;7.30;91.80;;;;;;5050679;28;20017;-64
2021/03/14 10:33:43;;;;;;;17.80;9.20;;;7.40;92.00;;;;;;5051012;28;20467;-64
2021/03/14 10:36:14;;;;;;;15.93;8.63;;;7.50;91.60;;;;;;5052351;28;20053;-64
2021/03/14 10:38:45;;;;;;;17.58;7.40;;;7.60;91.10;;;;;;5050723;28;20518;-64
2021/03/14 10:41:22;;;;;;;22.08;11.80;;;7.60;90.90;;;;;;5051980;28;20088;-65
2021/03/14 10:43:52;;;;;;;24.58;13.15;;;7.60;91.30;;;;;;5052208;28;20056;-65
2021/03/14 10:46:37;;;;;;;24.00;12.80;;;7.70;91.50;;;;;;5052508;28;20128;-65
2021/03/14 10:49:06;;;;;;;18.02;9.40;;;7.70;91.10;;;;;;5053657;28;20067;-65
2021/03/14 10:51:33;;;;;;;20.70;11.23;;;7.70;90.80;;;;;;5054355;28;20021;-65
2021/03/14 10:54:13;;;;;;;23.98;12.90;;;7.80;90.90;;;;;;5055854;28;20529;-64
2021/03/14 10:56:45;;;;;;;23.60;13.55;;;7.80;90.90;;;;;;5054318;28;20555;-64
2021/03/14 10:59:30;;;;;;;24.45;13.95;;;7.70;90.70;;;;;;5054413;28;20036;-64
2021/03/14 11:02:10;;;;;;;26.60;13.75;;;7.70;90.90;;;;;;5041035;28;20429;-63
2021/03/14 11:04:36;;;;;;;18.58;9.25;;;7.70;90.70;;;;;;5053914;28;20029;-64
2021/03/14 11:07:28;;;;;;;21.83;11.00;;;7.60;90.60;;;;;;5054256;28;20087;-64
2021/03/14 11:10:13;;;;;;;23.95;11.85;;;7.50;90.50;;;;;;5054037;28;20029;-64
2021/03/14 11:12:44;;;;;;;25.15;14.13;;;7.50;90.80;;;;;;5055397;28;20032;-65
2021/03/14 11:15:28;;;;;;;25.70;14.45;;;7.40;90.90;;;;;;5055359;28;20032;-65
2021/03/14 11:17:56;;;;;;;25.48;14.18;;;7.40;91.20;;;;;;5054180;28;20032;-65
2021/03/14 11:20:23;;;;;;;30.35;14.77;;;7.30;91.20;;;;;;5055145;28;20021;-65
2021/03/14 11:22:50;;;;;;;25.55;10.30;;;7.30;91.30;;;;;;5054016;28;20536;-65
2021/03/14 11:25:16;;;;;;;23.80;12.68;;;7.30;91.30;;;;;;5054956;28;20068;-66
2021/03/14 11:27:42;;;;;;;30.08;13.93;;;7.30;91.30;;;;;;5054265;28;20110;-65
2021/03/14 11:30:09;;;;;;;24.48;13.40;;;7.20;91.50;;;;;;5054001;28;20463;-66
2021/03/14 11:32:34;;;;;;;22.00;11.57;;;7.20;91.60;;;;;;5053653;28;20083;-65
2021/03/14 11:35:00;;;;;;;26.30;13.57;;;7.20;91.70;;;;;;5054730;28;20037;-64
2021/03/14 11:37:26;;;;;;;25.95;14.13;;;7.30;91.80;;;;;;5054726;28;20036;-64
2021/03/14 11:39:52;;;;;;;29.35;16.15;;;7.30;91.80;;;;;;5053509;28;20025;-64
2021/03/14 11:42:19;;;;;;;28.02;14.27;;;7.30;91.80;;;;;;5053529;28;20511;-64
2021/03/14 11:44:44;;;;;;;25.90;13.57;;;7.30;91.80;;;;;;5054919;28;20045;-64
2021/03/14 11:47:10;;;;;;;28.35;15.68;;;7.30;91.90;;;;;;5054442;28;20410;-65
2021/03/14 11:49:36;;;;;;;28.75;14.07;;;7.30;92.10;;;;;;5054757;28;20499;-64
2021/03/14 11:52:02;;;;;;;31.17;14.68;;;7.40;92.20;;;;;;5054682;28;20464;-65
2021/03/14 11:54:27;;;;;;;26.40;14.75;;;7.40;92.10;;;;;;5054442;28;20108;-65
2021/03/14 11:56:53;;;;;;;27.52;13.57;;;7.50;92.20;;;;;;5054562;28;20025;-64
2021/03/14 11:59:19;;;;;;;28.80;15.48;;;7.60;92.30;;;;;;5054285;28;20033;-64
2021/03/14 12:01:47;;;;;;;28.05;14.43;;;7.60;92.20;;;;;;5053562;28;20025;-64
2021/03/14 12:04:13;;;;;;;25.23;14.38;;;7.70;92.40;;;;;;5053226;28;20020;-64
2021/03/14 12:06:38;;;;;;;30.52;15.60;;;7.90;92.40;;;;;;5053963;28;20518;-64
2021/03/14 12:09:05;;;;;;;24.65;13.90;;;8.00;92.10;;;;;;5054009;28;20136;-64
2021/03/14 12:11:31;;;;;;;28.88;16.13;;;8.10;92.10;;;;;;5054188;28;20139;-64
2021/03/14 12:13:57;;;;;;;25.92;13.50;;;8.20;91.80;;;;;;5053628;28;20494;-64
2021/03/14 12:16:23;;;;;;;25.02;14.23;;;8.20;91.00;;;;;;5054682;28;20109;-64
2021/03/14 12:18:48;;;;;;;26.33;15.05;;;8.20;90.80;;;;;;5052888;28;20527;-64
2021/03/14 12:21:14;;;;;;;27.58;14.98;;;8.10;90.50;;;;;;5052732;28;20036;-64
2021/03/14 12:23:40;;;;;;;27.27;16.33;;;8.00;90.40;;;;;;5053807;28;20032;-64
2021/03/14 12:26:06;;;;;;;25.65;15.20;;;8.00;90.50;;;;;;5054420;28;20494;-64
2021/03/14 12:28:32;;;;;;;26.52;14.98;;;7.90;90.70;;;;;;5053969;28;20464;-65
2021/03/14 12:30:59;;;;;;;31.60;15.50;;;7.90;90.70;;;;;;5052744;28;20032;-64
2021/03/14 12:33:25;;;;;;;31.45;16.23;;;7.90;90.80;;;;;;5052699;28;20107;-65
2021/03/14 12:35:51;;;;;;;31.42;15.98;;;7.90;90.90;;;;;;5052260;28;20025;-65
2021/03/14 12:38:18;;;;;;;32.40;15.65;;;7.90;90.90;;;;;;5054265;28;20033;-64
2021/03/14 12:40:47;;;;;;;27.92;16.58;;;7.90;90.90;;;;;;5052374;28;20029;-64
2021/03/14 12:43:14;;;;;;;33.45;18.23;;;7.90;90.80;;;;;;5052573;28;20021;-65
2021/03/14 12:45:40;;;;;;;29.83;15.48;;;7.80;90.80;;;;;;5052402;28;20025;-65
2021/03/14 12:48:06;;;;;;;31.10;15.93;;;7.80;90.80;;;;;;5053821;28;20032;-65